Time;durP1;ratioP1;P1;durP2;ratioP2;P2;SDS_P1;SDS_P2;PMS_P1;PMS_P2;Temp;Humidity;BMP_temperature;BMP_pressure;BME280_temperature;BME280_humidity;BME280_pressure;Samples;Min_cycle;Max_cycle;Signal;HPM_P1;HPM_P2
2022/02/24 05:00:15;;;;;;;4.05;1.85;;;7.30;99.90;;;;;;6003148;23;20294;31
2022/02/24 05:02:42;;;;;;;3.88;2.20;;;7.30;99.90;;;;;;4945846;29;20227;-68
2022/02/24 05:05:09;;;;;;;3.50;3.20;;;7.30;99.90;;;;;;4943729;28;20583;-68
2022/02/24 05:07:36;;;;;;;1.90;1.45;;;7.30;99.90;;;;;;4952636;29;20211;-68
2022/02/24 05:10:03;;;;;;;3.33;2.60;;;7.30;99.90;;;;;;4953654;28;20237;-67
2022/02/24 05:12:30;;;;;;;2.40;2.10;;;7.30;99.90;;;;;;4925568;28;20234;-68
2022/02/24 05:14:57;;;;;;;2.13;2.03;;;7.40;99.90;;;;;;4928708;29;20693;-68
2022/02/24 05:17:25;;;;;;;3.65;2.60;;;7.40;99.90;;;;;;4926064;29;20266;-69
2022/02/24 05:19:51;;;;;;;2.10;1.95;;;7.40;99.90;;;;;;4928558;29;20269;-69
2022/02/24 05:22:18;;;;;;;3.10;2.90;;;7.40;99.90;;;;;;4922020;29;20702;-69
2022/02/24 05:24:45;;;;;;;3.67;2.42;;;7.40;99.90;;;;;;4952046;23;20240;-71
2022/02/24 05:27:12;;;;;;;2.03;1.92;;;7.40;99.90;;;;;;4933481;29;20611;-71
2022/02/24 05:29:38;;;;;;;3.20;2.88;;;7.40;99.90;;;;;;4932055;29;20222;-71
2022/02/24 05:32:06;;;;;;;4.97;2.88;;;7.40;99.90;;;;;;4930647;29;20627;-71
2022/02/24 05:34:34;;;;;;;4.43;2.63;;;7.40;99.90;;;;;;4917069;29;20230;-71
2022/02/24 05:37:01;;;;;;;6.82;2.40;;;7.50;99.90;;;;;;4913939;29;20564;-71
2022/02/24 05:39:28;;;;;;;3.63;2.35;;;7.50;99.90;;;;;;4909713;29;20660;-71
2022/02/24 05:41:54;;;;;;;3.00;2.80;;;7.50;99.90;;;;;;4915043;29;20346;-71
2022/02/24 05:44:21;;;;;;;2.53;2.42;;;7.50;99.90;;;;;;4905950;29;20282;-71
2022/02/24 05:46:48;;;;;;;2.83;2.60;;;7.50;99.90;;;;;;4913261;29;20667;-71
2022/02/24 05:49:16;;;;;;;4.35;3.00;;;7.50;99.90;;;;;;4908336;29;20226;-71
2022/02/24 05:51:44;;;;;;;2.47;2.28;;;7.50;99.90;;;;;;4908545;29;20218;-71
2022/02/24 05:54:12;;;;;;;7.18;3.13;;;7.50;99.90;;;;;;4905441;29;20233;-71
2022/02/24 05:56:39;;;;;;;3.70;2.67;;;7.50;99.90;;;;;;4907710;29;20210;-71
2022/02/24 05:59:06;;;;;;;2.20;2.10;;;7.50;99.90;;;;;;4905746;29;20229;-72
2022/02/24 06:01:33;;;;;;;5.47;2.97;;;7.40;99.90;;;;;;4911352;29;20233;-71
2022/02/24 06:03:59;;;;;;;2.38;1.60;;;7.40;99.90;;;;;;4905237;29;20231;-71
2022/02/24 06:06:26;;;;;;;2.40;1.73;;;7.40;99.90;;;;;;4909157;29;20679;-71
2022/02/24 06:08:54;;;;;;;2.60;2.47;;;7.40;99.90;;;;;;4906951;29;20223;-71
2022/02/24 06:11:21;;;;;;;2.17;2.08;;;7.40;99.90;;;;;;4913568;29;20206;-71
2022/02/24 06:13:48;;;;;;;4.22;2.20;;;7.40;99.90;;;;;;4912119;29;20227;-72
2022/02/24 06:16:15;;;;;;;2.83;2.63;;;7.40;99.90;;;;;;4914741;29;20309;-71
2022/02/24 06:18:42;;;;;;;2.88;2.55;;;7.40;99.90;;;;;;4908889;29;20302;-71
2022/02/24 06:21:09;;;;;;;2.50;2.35;;;7.40;99.90;;;;;;4910659;29;20289;-70
2022/02/24 06:23:35;;;;;;;2.15;2.05;;;7.40;99.90;;;;;;4908191;29;20210;-70
2022/02/24 06:26:03;;;;;;;3.08;2.78;;;7.40;99.90;;;;;;4912733;29;20225;-70
2022/02/24 06:28:30;;;;;;;3.03;2.42;;;7.40;99.90;;;;;;4909591;29;20203;-70
2022/02/24 06:30:57;;;;;;;2.22;2.03;;;7.30;99.90;;;;;;4903135;29;20206;-70
2022/02/24 06:33:23;;;;;;;2.50;2.40;;;7.40;99.90;;;;;;4907016;29;20571;-70
2022/02/24 06:35:50;;;;;;;2.42;1.85;;;7.40;99.90;;;;;;4902565;29;20219;-70
2022/02/24 06:38:17;;;;;;;3.05;2.75;;;7.30;99.90;;;;;;4903962;29;20270;-71
2022/02/24 06:40:43;;;;;;;2.20;2.03;;;7.40;99.90;;;;;;4900103;29;20207;-71
2022/02/24 06:43:12;;;;;;;2.25;2.13;;;7.40;99.90;;;;;;4913062;29;20210;-71
2022/02/24 06:45:38;;;;;;;2.53;2.15;;;7.40;99.90;;;;;;4912241;29;20591;-72
2022/02/24 06:48:06;;;;;;;4.93;2.40;;;7.40;99.90;;;;;;4909892;29;20206;-71
2022/02/24 06:50:32;;;;;;;2.17;2.00;;;7.40;99.90;;;;;;4907167;29;20241;-71
2022/02/24 06:52:59;;;;;;;7.20;2.38;;;7.30;99.90;;;;;;4905252;29;20232;-71
2022/02/24 06:55:26;;;;;;;2.78;2.30;;;7.30;99.90;;;;;;4904259;29;20262;-71
2022/02/24 06:57:53;;;;;;;3.38;2.72;;;7.30;99.90;;;;;;4908385;29;20682;-71
2022/02/24 07:00:22;;;;;;;19.42;9.75;;;7.30;99.90;;;;;;4909269;29;20257;-71
2022/02/24 07:02:49;;;;;;;739.67;282.40;;;7.30;99.90;;;;;;4904460;29;20818;-72
2022/02/24 07:05:16;;;;;;;152.35;65.43;;;7.30;99.90;;;;;;4904516;29;20230;-72
2022/02/24 07:07:44;;;;;;;121.55;45.05;;;7.30;99.90;;;;;;4907703;29;20680;-71
2022/02/24 07:10:12;;;;;;;153.18;60.10;;;7.30;99.90;;;;;;4909453;29;20237;-71
2022/02/24 07:12:39;;;;;;;83.22;34.47;;;7.30;99.90;;;;;;4906717;29;20294;-71
2022/02/24 07:15:08;;;;;;;34.83;16.70;;;7.30;99.90;;;;;;4909345;29;20279;-71
2022/02/24 07:17:39;;;;;;;20.27;12.95;;;7.30;99.90;;;;;;4907000;29;20229;-71
2022/02/24 07:20:07;;;;;;;18.23;12.30;;;7.40;99.90;;;;;;4907694;29;20266;-71
2022/02/24 07:22:34;;;;;;;12.95;8.90;;;7.40;99.90;;;;;;4909222;29;20282;-72
2022/02/24 07:25:01;;;;;;;10.98;8.75;;;7.40;99.90;;;;;;4905332;29;20231;-71
2022/02/24 07:27:27;;;;;;;4.88;4.35;;;7.40;99.90;;;;;;4914867;29;20805;-72
2022/02/24 07:29:54;;;;;;;6.05;5.45;;;7.50;99.90;;;;;;4914119;29;20598;-71
2022/02/24 07:32:21;;;;;;;4.90;4.20;;;7.50;99.90;;;;;;4913814;29;20215;-71
2022/02/24 07:34:49;;;;;;;4.60;4.20;;;7.60;99.90;;;;;;4910852;29;20304;-72
2022/02/24 07:37:16;;;;;;;5.78;3.40;;;7.60;99.90;;;;;;4912687;29;20207;-71
2022/02/24 07:39:43;;;;;;;6.22;4.10;;;7.70;99.90;;;;;;4913346;29;20540;-71
2022/02/24 07:42:10;;;;;;;3.47;3.28;;;7.70;99.90;;;;;;4913666;29;20218;-71
2022/02/24 07:44:37;;;;;;;3.38;2.42;;;7.70;99.90;;;;;;4913489;29;20218;-71
2022/02/24 07:47:04;;;;;;;5.13;3.17;;;7.80;99.90;;;;;;4913445;29;20596;-71
2022/02/24 07:49:31;;;;;;;3.90;2.80;;;7.80;99.90;;;;;;4912312;29;20257;-71
2022/02/24 07:51:59;;;;;;;2.92;2.50;;;7.80;99.90;;;;;;4902648;29;20211;-71
2022/02/24 07:54:26;;;;;;;2.72;2.60;;;7.90;99.90;;;;;;4901608;29;20541;-70
2022/02/24 07:56:52;;;;;;;5.65;2.08;;;7.90;99.90;;;;;;4912434;29;20223;-71
2022/02/24 07:59:20;;;;;;;3.90;3.70;;;7.90;99.90;;;;;;4908039;29;20211;-71
2022/02/24 08:01:47;;;;;;;20.52;15.35;;;8.00;99.90;;;;;;4902898;29;20203;-71
2022/02/24 08:04:15;;;;;;;4.65;3.45;;;8.00;99.90;;;;;;4911299;29;20226;-71
2022/02/24 08:06:42;;;;;;;3.70;3.50;;;8.00;99.90;;;;;;4906974;29;20297;-71
2022/02/24 08:09:10;;;;;;;22.63;19.13;;;8.10;99.90;;;;;;4906383;29;20219;-72
2022/02/24 08:11:37;;;;;;;14.15;10.52;;;8.10;99.90;;;;;;4913689;29;20213;-71
2022/02/24 08:14:04;;;;;;;20.38;15.77;;;8.20;99.90;;;;;;4910757;29;20570;-71
2022/02/24 08:16:31;;;;;;;7.75;6.88;;;8.20;99.90;;;;;;4917688;29;20214;-71
2022/02/24 08:18:59;;;;;;;3.72;3.42;;;8.30;99.90;;;;;;4913368;29;20215;-71
2022/02/24 08:21:26;;;;;;;4.43;4.00;;;8.30;99.90;;;;;;4917139;29;20210;-71
2022/02/24 08:23:53;;;;;;;5.03;3.50;;;8.30;99.90;;;;;;4914740;29;20242;-71
2022/02/24 08:26:21;;;;;;;4.03;3.83;;;8.40;99.90;;;;;;4916901;29;20617;-71
2022/02/24 08:28:50;;;;;;;7.30;3.25;;;8.40;99.90;;;;;;4916262;29;20210;-71
2022/02/24 08:31:16;;;;;;;3.95;3.65;;;8.40;99.90;;;;;;4915854;29;20215;-71
2022/02/24 08:33:43;;;;;;;2.97;2.83;;;8.50;99.90;;;;;;4912979;29;20229;-71
2022/02/24 08:36:10;;;;;;;3.45;2.72;;;8.50;99.90;;;;;;4907792;29;20202;-71
2022/02/24 08:38:36;;;;;;;2.85;2.75;;;8.50;99.90;;;;;;4917162;29;20220;-70
2022/02/24 08:41:03;;;;;;;2.60;2.40;;;8.50;99.90;;;;;;4904036;29;20210;-70
2022/02/24 08:43:31;;;;;;;2.55;2.35;;;8.60;99.90;;;;;;4911612;29;20923;-71
2022/02/24 08:45:58;;;;;;;8.10;3.13;;;8.60;99.90;;;;;;4904536;29;20606;-70
2022/02/24 08:48:25;;;;;;;3.22;2.45;;;8.60;99.90;;;;;;4897834;29;20222;-71
2022/02/24 08:50:52;;;;;;;3.78;2.50;;;8.70;99.90;;;;;;4910853;29;20227;-71
2022/02/24 08:53:18;;;;;;;3.88;3.08;;;8.70;99.90;;;;;;4916239;29;20211;-70
2022/02/24 08:55:45;;;;;;;4.10;2.30;;;8.70;99.90;;;;;;4915663;29;20223;-70
2022/02/24 08:58:12;;;;;;;6.97;2.50;;;8.80;99.90;;;;;;4904565;29;20616;-71
2022/02/24 09:00:45;;;;;;;3.80;2.45;;;8.80;99.90;;;;;;4916253;29;20199;-71
2022/02/24 09:03:12;;;;;;;4.20;3.03;;;8.80;99.90;;;;;;4914624;29;20246;-71
2022/02/24 09:05:39;;;;;;;3.22;2.72;;;8.80;99.90;;;;;;4914924;29;20278;-71
2022/02/24 09:08:06;;;;;;;3.22;2.90;;;8.80;99.90;;;;;;4915448;29;20214;-71
2022/02/24 09:10:32;;;;;;;5.80;2.53;;;8.80;99.90;;;;;;4915047;29;20231;-71
2022/02/24 09:12:59;;;;;;;2.45;2.33;;;8.90;99.90;;;;;;4916044;29;20747;-71
2022/02/24 09:15:26;;;;;;;8.80;6.57;;;8.90;99.90;;;;;;4913780;29;20238;-71
2022/02/24 09:17:54;;;;;;;8.60;5.28;;;9.00;99.90;;;;;;4915307;29;20544;-71
2022/02/24 09:20:21;;;;;;;4.32;3.88;;;9.00;99.90;;;;;;4915257;29;20711;-71
2022/02/24 09:22:48;;;;;;;4.85;4.15;;;9.10;99.90;;;;;;4913057;29;20215;-71
2022/02/24 09:25:15;;;;;;;5.30;3.25;;;9.10;99.90;;;;;;4913684;29;20728;-71
2022/02/24 09:27:42;;;;;;;7.90;4.25;;;9.20;99.90;;;;;;4915914;29;20590;-71
2022/02/24 09:30:09;;;;;;;2.83;2.72;;;9.20;99.90;;;;;;4913804;29;20226;-71
2022/02/24 09:32:37;;;;;;;5.00;4.60;;;9.20;99.90;;;;;;4914017;29;20214;-72
2022/02/24 09:35:07;;;;;;;3.70;2.67;;;9.30;99.90;;;;;;4914683;29;20230;-72
2022/02/24 09:37:36;;;;;;;2.65;2.55;;;9.40;99.90;;;;;;4905825;29;20214;-72
2022/02/24 09:40:03;;;;;;;4.50;4.20;;;9.50;99.90;;;;;;4902131;29;20203;-71
2022/02/24 09:42:30;;;;;;;2.80;2.60;;;9.70;99.90;;;;;;4915583;29;20242;-72
2022/02/24 09:44:57;;;;;;;4.45;4.05;;;9.70;99.90;;;;;;4914549;29;20582;-71
2022/02/24 09:47:26;;;;;;;6.78;3.83;;;9.80;99.90;;;;;;4913206;29;20207;-71
2022/02/24 09:49:56;;;;;;;3.35;3.05;;;9.90;99.90;;;;;;4910039;29;20313;-72
2022/02/24 09:52:24;;;;;;;5.43;2.92;;;9.90;99.90;;;;;;4913715;29;20209;-72
2022/02/24 09:54:50;;;;;;;4.25;2.75;;;10.00;99.90;;;;;;4905266;29;20641;-72
2022/02/24 09:57:17;;;;;;;5.13;3.83;;;10.00;99.90;;;;;;4913620;29;20215;-72
2022/02/24 09:59:44;;;;;;;4.55;3.95;;;10.10;99.90;;;;;;4910960;29;20210;-71
2022/02/24 10:02:12;;;;;;;5.32;3.90;;;10.10;99.90;;;;;;4897241;29;20533;-72
2022/02/24 10:04:38;;;;;;;3.70;3.50;;;10.10;99.90;;;;;;4897542;29;20231;-72
2022/02/24 10:07:05;;;;;;;3.47;3.13;;;10.20;99.90;;;;;;4905124;29;20690;-72
2022/02/24 10:09:34;;;;;;;5.50;3.63;;;10.20;99.90;;;;;;4915680;29;20646;-71
2022/02/24 10:12:06;;;;;;;2.75;2.65;;;10.20;99.90;;;;;;4916434;29;20254;-72
2022/02/24 10:14:34;;;;;;;6.53;3.13;;;10.20;99.90;;;;;;4914192;29;20230;-72
2022/02/24 10:17:03;;;;;;;3.47;3.08;;;10.20;99.90;;;;;;4914911;29;20217;-72
2022/02/24 10:19:32;;;;;;;8.15;3.70;;;10.30;99.90;;;;;;4914173;29;20594;-72
2022/02/24 10:22:06;;;;;;;3.50;2.22;;;10.30;99.90;;;;;;4914465;29;20230;-71
2022/02/24 10:24:34;;;;;;;5.65;2.85;;;10.40;99.90;;;;;;4921996;29;20229;-71
2022/02/24 10:27:20;;;;;;;2.35;2.20;;;10.40;99.90;;;;;;4920098;29;20536;-70
2022/02/24 10:30:06;;;;;;;2.40;2.30;;;10.40;99.90;;;;;;4911461;29;20241;-72
2022/02/24 10:32:34;;;;;;;2.45;2.25;;;10.50;99.90;;;;;;4910202;29;20202;-72
2022/02/24 10:35:24;;;;;;;3.38;2.42;;;10.60;99.90;;;;;;4909855;29;20228;-72
2022/02/24 10:37:53;;;;;;;3.40;3.20;;;10.60;99.90;;;;;;4909128;29;20201;-72
2022/02/24 10:40:23;;;;;;;4.40;2.60;;;10.60;99.90;;;;;;4925106;29;20198;-72
2022/02/24 10:42:51;;;;;;;2.90;2.45;;;10.70;99.90;;;;;;4914905;29;20209;-72
2022/02/24 10:45:18;;;;;;;3.50;3.20;;;10.70;99.90;;;;;;4906188;29;20228;-72
2022/02/24 10:48:02;;;;;;;3.38;2.25;;;10.70;99.90;;;;;;4911247;29;20875;-71
2022/02/24 10:50:48;;;;;;;8.88;2.70;;;10.60;99.90;;;;;;4905877;29;20594;-72
2022/02/24 10:53:15;;;;;;;6.20;3.25;;;10.50;99.90;;;;;;4912420;29;20686;-72
2022/02/24 10:55:55;;;;;;;4.75;2.83;;;10.50;99.90;;;;;;4899174;29;20262;-72
2022/02/24 10:58:22;;;;;;;4.15;3.60;;;10.40;99.90;;;;;;4913559;29;20198;-72
2022/02/24 11:00:49;;;;;;;3.53;3.28;;;10.40;99.90;;;;;;4912068;29;20298;-72
2022/02/24 11:03:16;;;;;;;2.95;2.53;;;10.30;99.90;;;;;;4914375;29;20217;-72
2022/02/24 11:05:43;;;;;;;3.45;2.88;;;10.20;99.90;;;;;;4913728;29;20653;-72
2022/02/24 11:08:10;;;;;;;2.75;2.42;;;10.20;99.90;;;;;;4914563;29;20237;-71
2022/02/24 11:10:38;;;;;;;3.40;3.20;;;10.20;99.90;;;;;;4910205;29;20284;-72
2022/02/24 11:13:06;;;;;;;3.53;1.95;;;10.10;99.90;;;;;;4915580;29;20218;-72
2022/02/24 11:15:34;;;;;;;2.47;2.35;;;10.00;99.90;;;;;;4909260;29;20704;-72
2022/02/24 11:18:01;;;;;;;3.67;2.90;;;9.90;99.90;;;;;;4895731;29;20215;-71
2022/02/24 11:20:28;;;;;;;6.68;2.78;;;9.80;99.90;;;;;;4902051;29;20207;-72
2022/02/24 11:22:56;;;;;;;7.25;3.92;;;9.80;99.90;;;;;;4914547;29;20290;-72
2022/02/24 11:25:26;;;;;;;6.18;3.05;;;9.70;99.90;;;;;;4914494;29;20269;-71
2022/02/24 11:27:53;;;;;;;3.80;3.20;;;9.80;99.90;;;;;;4909522;29;20278;-72
2022/02/24 11:30:28;;;;;;;2.40;2.30;;;9.70;99.90;;;;;;4900642;29;20665;-71
2022/02/24 11:32:55;;;;;;;2.97;2.75;;;9.70;99.90;;;;;;4910934;29;20686;-71
2022/02/24 11:35:23;;;;;;;3.22;2.90;;;9.70;99.90;;;;;;4904205;29;20234;-72
2022/02/24 11:37:53;;;;;;;6.53;5.13;;;9.70;99.90;;;;;;4921165;29;20210;-71
2022/02/24 11:40:21;;;;;;;4.22;3.60;;;9.80;99.90;;;;;;4919655;29;20205;-71
2022/02/24 11:43:03;;;;;;;2.80;2.60;;;9.80;99.90;;;;;;4910804;29;20216;-71
2022/02/24 11:45:39;;;;;;;3.95;2.78;;;9.80;99.90;;;;;;4924282;29;20274;-71
2022/02/24 11:48:08;;;;;;;4.88;4.45;;;9.80;99.90;;;;;;4914666;29;20313;-71
2022/02/24 11:50:37;;;;;;;3.38;3.17;;;9.90;99.90;;;;;;4909436;29;20757;-70
2022/02/24 11:53:06;;;;;;;8.25;5.60;;;9.90;99.90;;;;;;4916582;29;20214;-70
2022/02/24 11:55:58;;;;;;;5.57;5.07;;;9.90;99.90;;;;;;4922633;29;20262;-70
2022/02/24 11:58:50;;;;;;;7.18;6.45;;;10.00;99.90;;;;;;4917378;29;20202;-71
2022/02/24 12:01:30;;;;;;;4.15;3.72;;;10.10;99.90;;;;;;4911676;29;20296;-70
2022/02/24 12:04:05;;;;;;;4.45;3.97;;;10.20;99.90;;;;;;4910609;29;20265;-70
2022/02/24 12:06:42;;;;;;;3.92;3.63;;;10.30;99.90;;;;;;4919651;29;20206;-70
2022/02/24 12:09:11;;;;;;;4.03;3.17;;;10.40;99.90;;;;;;4920168;29;20390;-71
2022/02/24 12:11:40;;;;;;;3.63;2.97;;;10.50;99.90;;;;;;4923701;29;20253;-71
2022/02/24 12:14:44;;;;;;;3.38;3.13;;;10.60;99.90;;;;;;4918297;29;20290;-70
2022/02/24 12:17:15;;;;;;;4.88;4.47;;;10.70;99.90;;;;;;4918334;29;20283;-71
2022/02/24 12:19:47;;;;;;;4.63;4.30;;;10.70;99.90;;;;;;4912737;29;20297;-70
2022/02/24 12:22:36;;;;;;;9.45;4.38;;;10.70;99.90;;;;;;4918405;29;20195;-70
2022/02/24 12:25:10;;;;;;;6.00;4.15;;;10.70;99.90;;;;;;4917747;29;20242;-71
2022/02/24 12:27:39;;;;;;;5.70;4.03;;;10.60;99.90;;;;;;4917285;29;20697;-71
2022/02/24 12:30:19;;;;;;;4.45;3.60;;;10.70;99.90;;;;;;4911124;29;20557;-70
2022/02/24 12:32:50;;;;;;;3.88;3.58;;;10.70;99.90;;;;;;4932826;29;20218;-72
2022/02/24 12:35:18;;;;;;;4.57;3.45;;;10.70;99.90;;;;;;4925330;29;20293;-72
2022/02/24 12:37:49;;;;;;;3.50;3.22;;;10.80;99.90;;;;;;4921721;29;20203;-73
2022/02/24 12:40:18;;;;;;;4.32;4.03;;;10.90;99.90;;;;;;4921451;29;20206;-73
2022/02/24 12:42:47;;;;;;;6.50;4.25;;;11.00;99.90;;;;;;4921630;29;20695;-75
2022/02/24 12:45:17;;;;;;;4.53;4.13;;;11.10;99.90;;;;;;4921852;29;20230;-72
2022/02/24 12:47:44;;;;;;;5.07;3.90;;;11.20;99.90;;;;;;4927997;29;20458;-74
2022/02/24 12:50:21;;;;;;;4.07;3.80;;;11.20;99.90;;;;;;4915343;29;20297;-73
2022/02/24 12:52:48;;;;;;;3.85;3.60;;;11.10;99.90;;;;;;4913312;29;20203;-73
2022/02/24 12:55:17;;;;;;;3.65;3.42;;;10.90;99.90;;;;;;4924896;29;20297;-74
2022/02/24 12:57:44;;;;;;;5.40;4.80;;;10.90;99.90;;;;;;4919736;29;20214;-73
2022/02/24 13:00:14;;;;;;;6.13;4.10;;;10.80;99.90;;;;;;4916056;29;20214;-73
2022/02/24 13:02:41;;;;;;;3.70;3.50;;;10.90;99.90;;;;;;4899528;29;20212;-73
2022/02/24 13:05:10;;;;;;;5.20;4.80;;;10.90;99.90;;;;;;4915889;29;20231;-73
2022/02/24 13:10:32;;;;;;;3.15;2.95;;;11.00;99.90;;;;;;4916472;29;20305;-73
2022/02/24 13:12:59;;;;;;;3.53;3.20;;;11.10;99.90;;;;;;4916657;29;20298;-73
2022/02/24 13:15:28;;;;;;;3.85;3.55;;;11.10;99.90;;;;;;4916134;29;20237;-73
2022/02/24 13:17:55;;;;;;;3.10;2.80;;;11.00;99.90;;;;;;4916181;29;20247;-73
2022/02/24 13:20:29;;;;;;;2.58;2.42;;;11.00;99.90;;;;;;4914879;29;20213;-73
2022/02/24 13:22:57;;;;;;;2.75;2.70;;;11.10;99.90;;;;;;4916251;29;20217;-73
2022/02/24 13:25:28;;;;;;;3.03;2.80;;;11.20;99.90;;;;;;4915855;29;20273;-73
2022/02/24 13:27:56;;;;;;;2.00;2.00;;;11.20;99.90;;;;;;4916052;29;20226;-73
2022/02/24 13:30:23;;;;;;;4.00;3.13;;;11.10;99.90;;;;;;4922807;29;20261;-73
2022/02/24 13:32:50;;;;;;;2.10;2.00;;;11.20;99.90;;;;;;4933344;29;20450;-73
2022/02/24 13:35:22;;;;;;;2.10;1.98;;;11.10;99.90;;;;;;4915202;29;20330;-74
2022/02/24 13:37:51;;;;;;;4.03;3.28;;;11.20;99.90;;;;;;4922006;29;20201;-73
2022/02/24 13:40:22;;;;;;;3.00;2.80;;;11.20;99.90;;;;;;4934111;29;20210;-73
2022/02/24 13:43:02;;;;;;;2.03;1.85;;;11.20;99.90;;;;;;4922548;29;20210;-72
2022/02/24 13:45:30;;;;;;;7.75;4.60;;;11.30;99.90;;;;;;4915608;29;20322;-73
2022/02/24 13:47:58;;;;;;;3.13;1.75;;;11.30;99.90;;;;;;4916165;29;20214;-73
2022/02/24 13:50:45;;;;;;;2.78;2.67;;;11.30;99.90;;;;;;4914829;29;20213;-72
2022/02/24 13:53:16;;;;;;;3.50;2.50;;;11.30;99.90;;;;;;4918797;29;20202;-73
2022/02/24 13:55:59;;;;;;;3.25;2.67;;;11.30;99.90;;;;;;4919549;29;21167;-73
2022/02/24 13:58:27;;;;;;;4.53;2.67;;;11.30;99.90;;;;;;4934260;29;20205;-73
2022/02/24 14:00:58;;;;;;;2.10;2.00;;;11.40;99.90;;;;;;4927023;29;20547;-70
2022/02/24 14:03:33;;;;;;;2.37;2.17;;;11.40;99.90;;;;;;4905497;29;20262;-70
2022/02/24 14:06:09;;;;;;;2.60;2.50;;;11.40;99.90;;;;;;4909375;29;20467;-73
2022/02/24 14:08:36;;;;;;;2.17;2.07;;;11.50;99.90;;;;;;4910544;29;20943;-73
2022/02/24 14:11:10;;;;;;;4.47;2.50;;;11.50;99.90;;;;;;4913696;29;20838;-73
2022/02/24 14:13:39;;;;;;;2.93;2.77;;;11.50;99.90;;;;;;4913429;29;20962;-72
2022/02/24 14:16:06;;;;;;;2.63;1.67;;;11.40;99.90;;;;;;4916576;29;20462;-73
2022/02/24 14:18:33;;;;;;;9.33;1.80;;;11.40;99.90;;;;;;4914114;29;20462;-72
2022/02/24 14:21:00;;;;;;;1.50;1.50;;;11.30;99.90;;;;;;4914338;29;20537;-73
2022/02/24 14:23:28;;;;;;;2.42;1.80;;;11.30;99.90;;;;;;4911962;29;20278;-73
2022/02/24 14:25:54;;;;;;;3.55;1.33;;;11.20;99.90;;;;;;4896118;29;20777;-72
2022/02/24 14:28:23;;;;;;;2.20;2.05;;;11.20;99.90;;;;;;4910117;29;20217;-71
2022/02/24 14:30:50;;;;;;;1.92;1.52;;;11.20;99.90;;;;;;4907320;29;20198;-72
2022/02/24 14:33:17;;;;;;;1.45;1.40;;;11.30;99.90;;;;;;4910633;29;20206;-73
2022/02/24 14:35:44;;;;;;;1.52;1.40;;;11.30;99.90;;;;;;4920136;29;20222;-73
2022/02/24 14:38:11;;;;;;;2.13;2.00;;;11.20;99.90;;;;;;4932020;29;20222;-73
2022/02/24 14:40:37;;;;;;;1.88;1.77;;;11.20;99.90;;;;;;4912936;29;20203;-73
2022/02/24 14:43:05;;;;;;;2.28;1.80;;;11.10;99.90;;;;;;4911003;29;20222;-73
2022/02/24 14:45:34;;;;;;;2.00;1.90;;;11.10;99.90;;;;;;4926386;29;20241;-73
2022/02/24 14:48:01;;;;;;;3.05;2.47;;;11.00;99.90;;;;;;4933982;29;20334;-73
2022/02/24 14:50:28;;;;;;;2.55;2.35;;;11.00;99.90;;;;;;4911275;29;20267;-73
2022/02/24 14:52:55;;;;;;;2.40;2.30;;;11.00;99.90;;;;;;4910801;29;20233;-73
2022/02/24 14:55:22;;;;;;;10.80;8.30;;;11.00;99.90;;;;;;4913367;29;20230;-73
2022/02/24 14:57:48;;;;;;;6.13;3.60;;;11.00;99.90;;;;;;4914300;29;20297;-73
2022/02/24 15:00:18;;;;;;;4.03;3.80;;;10.90;99.90;;;;;;4913517;29;20214;-73
2022/02/24 15:02:47;;;;;;;4.30;4.00;;;10.90;99.90;;;;;;4911849;29;20207;-73
2022/02/24 15:05:14;;;;;;;3.30;3.17;;;10.90;99.90;;;;;;4919266;29;20238;-73
2022/02/24 15:07:40;;;;;;;4.45;4.30;;;10.90;99.90;;;;;;4914232;29;20211;-73
2022/02/24 15:10:08;;;;;;;4.15;3.92;;;10.90;99.90;;;;;;4905730;29;20211;-73
2022/02/24 15:12:34;;;;;;;4.15;3.95;;;10.90;99.90;;;;;;4913778;29;20221;-73
2022/02/24 15:15:02;;;;;;;4.60;4.13;;;10.90;99.90;;;;;;4913515;29;20238;-73
2022/02/24 15:17:29;;;;;;;4.47;4.07;;;10.80;99.90;;;;;;4910965;29;20214;-72
2022/02/24 15:19:57;;;;;;;3.33;3.13;;;10.90;99.90;;;;;;4917243;29;20210;-70
2022/02/24 15:22:23;;;;;;;3.10;2.90;;;11.00;99.90;;;;;;4914967;29;20207;-71
2022/02/24 15:24:50;;;;;;;2.13;2.13;;;11.00;99.90;;;;;;4913233;29;20329;-72
2022/02/24 15:27:17;;;;;;;2.60;1.70;;;10.90;99.90;;;;;;4912945;29;20214;-72
2022/02/24 15:29:43;;;;;;;1.67;1.65;;;10.90;99.90;;;;;;4913091;29;20321;-72
2022/02/24 15:32:11;;;;;;;3.50;1.73;;;10.80;99.90;;;;;;4905426;29;20234;-72
2022/02/24 15:34:37;;;;;;;1.85;1.52;;;10.80;99.90;;;;;;4899552;29;20235;-72
2022/02/24 15:37:06;;;;;;;2.38;1.60;;;10.80;99.90;;;;;;4919360;29;20218;-71
2022/02/24 15:39:33;;;;;;;1.90;1.90;;;10.80;99.90;;;;;;4931083;29;20752;-72
2022/02/24 15:42:00;;;;;;;2.00;2.00;;;10.80;99.90;;;;;;4917375;29;20207;-73
2022/02/24 15:44:27;;;;;;;2.08;1.98;;;10.80;99.90;;;;;;4918011;29;20234;-72
2022/02/24 15:46:54;;;;;;;3.72;2.50;;;10.80;99.90;;;;;;4917629;29;20748;-72
2022/02/24 15:49:20;;;;;;;2.33;2.22;;;10.70;99.90;;;;;;4916749;29;20238;-72
2022/02/24 15:51:47;;;;;;;2.30;2.10;;;10.60;99.90;;;;;;4917326;29;20261;-71
2022/02/24 15:54:15;;;;;;;2.65;2.55;;;10.60;99.90;;;;;;4917790;29;20311;-72
2022/02/24 15:56:42;;;;;;;11.43;3.08;;;10.50;99.90;;;;;;4918435;29;20226;-72
2022/02/24 15:59:09;;;;;;;10.43;2.72;;;10.40;99.90;;;;;;4916965;29;20676;-72
2022/02/24 16:01:36;;;;;;;2.47;2.17;;;10.40;99.90;;;;;;4909106;29;20263;-73
2022/02/24 16:04:04;;;;;;;3.65;3.35;;;10.30;99.90;;;;;;4900691;29;20242;-72
2022/02/24 16:06:31;;;;;;;2.88;2.53;;;10.20;99.90;;;;;;4917669;29;20223;-72
2022/02/24 16:08:58;;;;;;;3.90;3.70;;;10.20;99.90;;;;;;4920712;29;20225;-72
2022/02/24 16:11:27;;;;;;;2.58;2.50;;;10.20;99.90;;;;;;4925020;29;20215;-70
2022/02/24 16:13:54;;;;;;;3.20;3.10;;;10.20;99.90;;;;;;4916897;29;20568;-73
2022/02/24 16:16:22;;;;;;;2.70;2.60;;;10.30;99.90;;;;;;4917381;29;20727;-72
2022/02/24 16:18:48;;;;;;;3.65;3.35;;;10.30;99.90;;;;;;4916519;29;20213;-72
2022/02/24 16:21:15;;;;;;;2.58;2.40;;;10.30;99.90;;;;;;4917083;29;20805;-72
2022/02/24 16:23:43;;;;;;;3.65;3.45;;;10.10;99.90;;;;;;4916604;29;20652;-72
2022/02/24 16:26:10;;;;;;;3.17;2.42;;;10.10;99.90;;;;;;4917000;29;20219;-71
2022/02/24 16:28:38;;;;;;;4.53;4.22;;;10.00;99.90;;;;;;4917177;29;20612;-71
2022/02/24 16:31:24;;;;;;;5.05;4.53;;;9.90;99.90;;;;;;4915313;29;20668;-71
2022/02/24 16:33:51;;;;;;;3.78;3.50;;;9.90;99.90;;;;;;4914671;29;20226;-72
2022/02/24 16:36:19;;;;;;;2.22;2.20;;;9.80;99.90;;;;;;4915834;29;21069;-73
2022/02/24 16:38:48;;;;;;;3.83;2.88;;;9.80;99.90;;;;;;4911598;29;20220;-72
2022/02/24 16:41:16;;;;;;;2.85;2.75;;;9.80;99.90;;;;;;4916015;29;20263;-71
2022/02/24 16:43:44;;;;;;;2.80;2.70;;;9.80;99.90;;;;;;4910242;29;20217;-71
2022/02/24 16:46:11;;;;;;;3.38;3.15;;;9.80;99.90;;;;;;4915345;29;20574;-70
2022/02/24 16:48:38;;;;;;;2.72;2.55;;;9.80;99.90;;;;;;4917715;29;20225;-70
2022/02/24 16:51:04;;;;;;;2.15;2.05;;;9.70;99.90;;;;;;4913993;29;20679;-70
2022/02/24 16:53:31;;;;;;;1.80;1.80;;;9.70;99.90;;;;;;4917202;29;20227;-70
2022/02/24 16:55:58;;;;;;;3.05;2.85;;;9.70;99.90;;;;;;4913246;29;20734;-70
2022/02/24 16:58:25;;;;;;;6.57;2.50;;;9.70;99.90;;;;;;4913201;29;20310;-70
2022/02/24 17:00:53;;;;;;;5.93;4.40;;;9.70;99.90;;;;;;4915653;29;20206;-71
2022/02/24 17:03:19;;;;;;;3.30;3.10;;;9.70;99.90;;;;;;4915756;29;20195;-71
2022/02/24 17:05:46;;;;;;;3.95;3.65;;;9.70;99.90;;;;;;4914892;29;20238;-71
2022/02/24 17:08:13;;;;;;;4.45;4.18;;;9.70;99.90;;;;;;4913796;29;20214;-72
2022/02/24 17:10:40;;;;;;;5.88;5.30;;;9.70;99.90;;;;;;4914216;29;20623;-70
2022/02/24 17:13:08;;;;;;;4.00;3.75;;;9.70;99.90;;;;;;4915638;29;20291;-70
2022/02/24 17:15:34;;;;;;;2.70;2.20;;;9.70;99.90;;;;;;4911246;29;20233;-71
2022/02/24 17:18:03;;;;;;;4.05;3.85;;;9.70;99.90;;;;;;4911221;29;20753;-70
2022/02/24 17:20:30;;;;;;;3.53;3.42;;;9.70;99.90;;;;;;4909379;29;20210;-71
2022/02/24 17:22:56;;;;;;;3.60;3.40;;;9.70;99.90;;;;;;4911929;29;20266;-71
2022/02/24 17:25:24;;;;;;;1.92;1.92;;;9.70;99.90;;;;;;4911738;29;20665;-72
2022/02/24 17:27:50;;;;;;;5.75;5.25;;;9.70;99.90;;;;;;4907079;29;20246;-70
2022/02/24 17:30:17;;;;;;;4.75;3.78;;;9.70;99.90;;;;;;4905786;29;20213;-72
2022/02/24 17:32:44;;;;;;;3.03;2.85;;;9.70;99.90;;;;;;4916486;29;20293;-70
2022/02/24 17:35:12;;;;;;;4.00;3.63;;;9.70;99.90;;;;;;4913532;29;20241;-70
2022/02/24 17:37:39;;;;;;;3.58;3.38;;;9.70;99.90;;;;;;4905989;29;20221;-70
2022/02/24 17:40:07;;;;;;;4.35;3.70;;;9.70;99.90;;;;;;4909445;29;20207;-70
2022/02/24 17:42:33;;;;;;;3.35;2.20;;;9.70;99.90;;;;;;4909264;29;20227;-72
2022/02/24 17:45:00;;;;;;;1.67;1.60;;;9.60;99.90;;;;;;4906841;29;20234;-69
2022/02/24 17:47:27;;;;;;;0.55;0.55;;;8.90;99.90;;;;;;4915114;29;20225;-70
2022/02/24 17:49:53;;;;;;;0.60;0.60;;;8.30;99.90;;;;;;4912009;29;20207;-70
2022/02/24 17:52:21;;;;;;;0.38;0.38;;;7.80;99.90;;;;;;4913976;29;20226;-70
2022/02/24 17:54:49;;;;;;;0.45;0.45;;;7.40;99.90;;;;;;4914096;29;20226;-70
2022/02/24 17:57:15;;;;;;;0.50;0.50;;;7.20;99.90;;;;;;4913791;29;20218;-70
2022/02/24 17:59:42;;;;;;;1.27;1.27;;;6.90;99.90;;;;;;4913829;29;20290;-70